ASL96M LYBE-LQMO
Flight info
| Callsign | ASL96M |
|---|---|
| Flight time | 0h 35m |
| Altitude | 24000 |
| Route | VAL Y88 VEBAR DCT KEB DCT XELMI |
| Aircraft | A319/M-SDE3FGHIRWY/LB1 |
Departure
| Time | 2026-04-26 12:31 |
|---|---|
| Airport | Belgrade Nikola Tesla Airport (LYBE) |
Arrival
| Time | 2026-04-26 13:06 |
|---|---|
| Airport | Mostar International Airport (LQMO) |
| Time | Latitude | Longitude | Altitude | Speed | Heading |
|---|---|---|---|---|---|
| 2026-04-26 12:08 | 44.82091 | 20.29284 | 310 ft | 0 kts | 212° |
| 2026-04-26 12:21 | 44.82101 | 20.29293 | 307 ft | 3 kts | 212° |
| 2026-04-26 12:21 | 44.82121 | 20.29310 | 306 ft | 3 kts | 212° |
| 2026-04-26 12:21 | 44.82136 | 20.29323 | 307 ft | 3 kts | 182° |
| 2026-04-26 12:22 | 44.82153 | 20.29313 | 306 ft | 3 kts | 126° |
| 2026-04-26 12:22 | 44.82166 | 20.29287 | 307 ft | 3 kts | 123° |
| 2026-04-26 12:22 | 44.82167 | 20.29284 | 308 ft | 0 kts | 123° |
| 2026-04-26 12:25 | 44.82153 | 20.29315 | 307 ft | 6 kts | 123° |
| 2026-04-26 12:25 | 44.82125 | 20.29376 | 308 ft | 9 kts | 123° |
| 2026-04-26 12:25 | 44.82086 | 20.29463 | 309 ft | 11 kts | 118° |
| 2026-04-26 12:25 | 44.82107 | 20.29540 | 309 ft | 10 kts | 43° |
| 2026-04-26 12:26 | 44.82096 | 20.29633 | 308 ft | 12 kts | 122° |
| 2026-04-26 12:26 | 44.82046 | 20.29746 | 308 ft | 15 kts | 121° |
| 2026-04-26 12:26 | 44.81987 | 20.29881 | 306 ft | 18 kts | 122° |
| 2026-04-26 12:26 | 44.81917 | 20.30039 | 307 ft | 20 kts | 122° |
| 2026-04-26 12:27 | 44.81840 | 20.30212 | 306 ft | 21 kts | 122° |
| 2026-04-26 12:27 | 44.81759 | 20.30395 | 308 ft | 22 kts | 122° |
| 2026-04-26 12:27 | 44.81675 | 20.30584 | 308 ft | 23 kts | 122° |
| 2026-04-26 12:27 | 44.81587 | 20.30781 | 307 ft | 24 kts | 122° |
| 2026-04-26 12:28 | 44.81495 | 20.30989 | 306 ft | 26 kts | 122° |
| 2026-04-26 12:28 | 44.81398 | 20.31207 | 307 ft | 27 kts | 122° |
| 2026-04-26 12:28 | 44.81298 | 20.31434 | 307 ft | 28 kts | 122° |
| 2026-04-26 12:28 | 44.81197 | 20.31663 | 308 ft | 28 kts | 122° |
| 2026-04-26 12:29 | 44.81091 | 20.31900 | 307 ft | 29 kts | 122° |
| 2026-04-26 12:29 | 44.80999 | 20.32114 | 306 ft | 16 kts | 115° |
| 2026-04-26 12:29 | 44.81111 | 20.32305 | 307 ft | 15 kts | 4° |
| 2026-04-26 12:30 | 44.81203 | 20.32302 | 308 ft | 10 kts | 359° |
| 2026-04-26 12:30 | 44.81259 | 20.32229 | 309 ft | 16 kts | 302° |
| 2026-04-26 12:30 | 44.81401 | 20.31909 | 309 ft | 66 kts | 302° |
| 2026-04-26 12:31 | 44.82249 | 20.30003 | 669 ft | 138 kts | 304° |
| 2026-04-26 12:31 | 44.82727 | 20.28833 | 1394 ft | 139 kts | 300° |
| 2026-04-26 12:31 | 44.82700 | 20.27364 | 1817 ft | 176 kts | 252° |
| 2026-04-26 12:31 | 44.81831 | 20.25900 | 2178 ft | 211 kts | 232° |
| 2026-04-26 12:32 | 44.80721 | 20.24342 | 2683 ft | 239 kts | 231° |
| 2026-04-26 12:32 | 44.79513 | 20.22592 | 3359 ft | 258 kts | 236° |
| 2026-04-26 12:32 | 44.77218 | 20.18541 | 5405 ft | 270 kts | 238° |
| 2026-04-26 12:33 | 44.76050 | 20.16408 | 6275 ft | 284 kts | 238° |
| 2026-04-26 12:33 | 44.74800 | 20.14110 | 6800 ft | 305 kts | 237° |
| 2026-04-26 12:33 | 44.73484 | 20.11711 | 7670 ft | 312 kts | 237° |
| 2026-04-26 12:33 | 44.72155 | 20.09318 | 8603 ft | 316 kts | 237° |
| 2026-04-26 12:34 | 44.70787 | 20.06874 | 9554 ft | 320 kts | 237° |
| 2026-04-26 12:34 | 44.69396 | 20.04399 | 10430 ft | 325 kts | 236° |
| 2026-04-26 12:34 | 44.67988 | 20.01895 | 11256 ft | 329 kts | 236° |
| 2026-04-26 12:34 | 44.66559 | 19.99352 | 12055 ft | 334 kts | 236° |
| 2026-04-26 12:35 | 44.65107 | 19.96767 | 12880 ft | 339 kts | 236° |
| 2026-04-26 12:35 | 44.63637 | 19.94149 | 13658 ft | 344 kts | 236° |
| 2026-04-26 12:35 | 44.62146 | 19.91494 | 14381 ft | 349 kts | 236° |
| 2026-04-26 12:35 | 44.60632 | 19.88800 | 15073 ft | 353 kts | 236° |
| 2026-04-26 12:36 | 44.59104 | 19.86086 | 15791 ft | 356 kts | 235° |
| 2026-04-26 12:36 | 44.57559 | 19.83348 | 16506 ft | 360 kts | 235° |
| 2026-04-26 12:36 | 44.55998 | 19.80585 | 17215 ft | 363 kts | 235° |
| 2026-04-26 12:36 | 44.54416 | 19.77789 | 17925 ft | 368 kts | 235° |
| 2026-04-26 12:37 | 44.52819 | 19.74968 | 18589 ft | 372 kts | 234° |
| 2026-04-26 12:37 | 44.51222 | 19.72152 | 19183 ft | 376 kts | 234° |
| 2026-04-26 12:37 | 44.49583 | 19.69264 | 19784 ft | 380 kts | 234° |
| 2026-04-26 12:37 | 44.47928 | 19.66353 | 20392 ft | 383 kts | 234° |
| 2026-04-26 12:38 | 44.46255 | 19.63413 | 20989 ft | 388 kts | 234° |
| 2026-04-26 12:38 | 44.44567 | 19.60449 | 21569 ft | 392 kts | 234° |
| 2026-04-26 12:38 | 44.42856 | 19.57446 | 22137 ft | 396 kts | 234° |
| 2026-04-26 12:38 | 44.41131 | 19.54422 | 22701 ft | 400 kts | 234° |
| 2026-04-26 12:39 | 44.39383 | 19.51360 | 23283 ft | 404 kts | 234° |
| 2026-04-26 12:39 | 44.37620 | 19.48265 | 23808 ft | 408 kts | 234° |
| 2026-04-26 12:39 | 44.35866 | 19.45185 | 24046 ft | 410 kts | 234° |
| 2026-04-26 12:39 | 44.34100 | 19.42100 | 24110 ft | 401 kts | 233° |
| 2026-04-26 12:40 | 44.32373 | 19.39103 | 24116 ft | 392 kts | 233° |
| 2026-04-26 12:40 | 44.30670 | 19.36150 | 24119 ft | 389 kts | 233° |
| 2026-04-26 12:40 | 44.28973 | 19.33200 | 24118 ft | 389 kts | 233° |
| 2026-04-26 12:40 | 44.27282 | 19.30252 | 24119 ft | 389 kts | 233° |
| 2026-04-26 12:41 | 44.25590 | 19.27301 | 24119 ft | 390 kts | 233° |
| 2026-04-26 12:41 | 44.23893 | 19.24345 | 24119 ft | 390 kts | 233° |
| 2026-04-26 12:41 | 44.22197 | 19.21402 | 24119 ft | 389 kts | 233° |
| 2026-04-26 12:41 | 44.20499 | 19.18464 | 24120 ft | 389 kts | 233° |
| 2026-04-26 12:42 | 44.18796 | 19.15523 | 24118 ft | 389 kts | 233° |
| 2026-04-26 12:42 | 44.17093 | 19.12582 | 24117 ft | 390 kts | 233° |
| 2026-04-26 12:42 | 44.15413 | 19.09681 | 24118 ft | 390 kts | 233° |
| 2026-04-26 12:42 | 44.13712 | 19.06745 | 24111 ft | 390 kts | 233° |
| 2026-04-26 12:43 | 44.12010 | 19.03808 | 24106 ft | 390 kts | 233° |
| 2026-04-26 12:43 | 44.10305 | 19.00868 | 24104 ft | 391 kts | 233° |
| 2026-04-26 12:43 | 44.08597 | 18.97922 | 24106 ft | 391 kts | 232° |
| 2026-04-26 12:43 | 44.06887 | 18.94976 | 24106 ft | 390 kts | 233° |
| 2026-04-26 12:44 | 44.05177 | 18.92035 | 24103 ft | 391 kts | 233° |
| 2026-04-26 12:44 | 44.03464 | 18.89095 | 24104 ft | 391 kts | 233° |
| 2026-04-26 12:44 | 44.01750 | 18.86163 | 24104 ft | 391 kts | 232° |
| 2026-04-26 12:44 | 44.00035 | 18.83233 | 24103 ft | 391 kts | 232° |
| 2026-04-26 12:45 | 43.98339 | 18.80338 | 24100 ft | 392 kts | 232° |
| 2026-04-26 12:45 | 43.96596 | 18.77366 | 24098 ft | 392 kts | 232° |
| 2026-04-26 12:45 | 43.94896 | 18.74468 | 24104 ft | 392 kts | 232° |
| 2026-04-26 12:45 | 43.93177 | 18.71536 | 24100 ft | 392 kts | 232° |
| 2026-04-26 12:46 | 43.91455 | 18.68601 | 24102 ft | 392 kts | 232° |
| 2026-04-26 12:46 | 43.89734 | 18.65673 | 24101 ft | 392 kts | 232° |
| 2026-04-26 12:46 | 43.88011 | 18.62742 | 24089 ft | 392 kts | 232° |
| 2026-04-26 12:46 | 43.86291 | 18.59819 | 23862 ft | 391 kts | 232° |
| 2026-04-26 12:47 | 43.84574 | 18.56905 | 23617 ft | 390 kts | 232° |
| 2026-04-26 12:47 | 43.82852 | 18.53988 | 23338 ft | 391 kts | 231° |
| 2026-04-26 12:47 | 43.81138 | 18.51084 | 23081 ft | 390 kts | 232° |
| 2026-04-26 12:47 | 43.79425 | 18.48180 | 22808 ft | 388 kts | 232° |
| 2026-04-26 12:48 | 43.77728 | 18.45312 | 22415 ft | 383 kts | 232° |
| 2026-04-26 12:48 | 43.76044 | 18.42474 | 21957 ft | 380 kts | 232° |
| 2026-04-26 12:48 | 43.74369 | 18.39659 | 21480 ft | 377 kts | 232° |
| 2026-04-26 12:48 | 43.72707 | 18.36872 | 20995 ft | 374 kts | 233° |
| 2026-04-26 12:49 | 43.71061 | 18.34105 | 20524 ft | 371 kts | 232° |
| 2026-04-26 12:49 | 43.69429 | 18.31357 | 20045 ft | 368 kts | 232° |
| 2026-04-26 12:49 | 43.67810 | 18.28631 | 19571 ft | 366 kts | 232° |
| 2026-04-26 12:49 | 43.66199 | 18.25922 | 19103 ft | 363 kts | 232° |
| 2026-04-26 12:50 | 43.64602 | 18.23242 | 18634 ft | 360 kts | 233° |
| 2026-04-26 12:50 | 43.63011 | 18.20580 | 18136 ft | 358 kts | 232° |
| 2026-04-26 12:50 | 43.61419 | 18.17990 | 17826 ft | 349 kts | 227° |
| 2026-04-26 12:50 | 43.59563 | 18.15915 | 17683 ft | 340 kts | 214° |
| 2026-04-26 12:51 | 43.57441 | 18.14536 | 17397 ft | 336 kts | 199° |
| 2026-04-26 12:51 | 43.55155 | 18.13801 | 16780 ft | 341 kts | 192° |
| 2026-04-26 12:51 | 43.52849 | 18.13196 | 16573 ft | 332 kts | 191° |
| 2026-04-26 12:51 | 43.50601 | 18.12613 | 16249 ft | 327 kts | 191° |
| 2026-04-26 12:52 | 43.48371 | 18.12037 | 15856 ft | 326 kts | 191° |
| 2026-04-26 12:52 | 43.46155 | 18.11464 | 15452 ft | 323 kts | 192° |
| 2026-04-26 12:52 | 43.44692 | 18.11086 | 15159 ft | 323 kts | 192° |
| 2026-04-26 12:52 | 43.41767 | 18.10325 | 14593 ft | 322 kts | 192° |
| 2026-04-26 12:53 | 43.39579 | 18.09751 | 14169 ft | 318 kts | 192° |
| 2026-04-26 12:53 | 43.37408 | 18.09179 | 13664 ft | 317 kts | 192° |
| 2026-04-26 12:53 | 43.35250 | 18.08614 | 13218 ft | 313 kts | 191° |
| 2026-04-26 12:53 | 43.33142 | 18.08066 | 12976 ft | 301 kts | 192° |
| 2026-04-26 12:54 | 43.31771 | 18.07710 | 12884 ft | 291 kts | 191° |
| 2026-04-26 12:54 | 43.29859 | 18.07210 | 12664 ft | 279 kts | 191° |
| 2026-04-26 12:54 | 43.27965 | 18.06710 | 12186 ft | 277 kts | 191° |
| 2026-04-26 12:54 | 43.26080 | 18.06217 | 11753 ft | 273 kts | 191° |
| 2026-04-26 12:55 | 43.24214 | 18.05730 | 11289 ft | 272 kts | 191° |
| 2026-04-26 12:55 | 43.22372 | 18.05255 | 10887 ft | 268 kts | 190° |
| 2026-04-26 12:55 | 43.20538 | 18.04782 | 10449 ft | 267 kts | 190° |
| 2026-04-26 12:55 | 43.18725 | 18.04312 | 10048 ft | 264 kts | 189° |
| 2026-04-26 12:56 | 43.16966 | 18.03853 | 9913 ft | 251 kts | 189° |
| 2026-04-26 12:56 | 43.15291 | 18.03416 | 9777 ft | 241 kts | 189° |
| 2026-04-26 12:56 | 43.13651 | 18.02991 | 9501 ft | 239 kts | 189° |
| 2026-04-26 12:56 | 43.12025 | 18.02568 | 9237 ft | 237 kts | 189° |
| 2026-04-26 12:57 | 43.10410 | 18.02149 | 8949 ft | 236 kts | 189° |
| 2026-04-26 12:57 | 43.08797 | 18.01730 | 8599 ft | 238 kts | 189° |
| 2026-04-26 12:57 | 43.07199 | 18.01317 | 8295 ft | 237 kts | 189° |
| 2026-04-26 12:58 | 43.03996 | 18.00406 | 7611 ft | 234 kts | 202° |
| 2026-04-26 12:58 | 43.02760 | 17.99131 | 7481 ft | 217 kts | 231° |
| 2026-04-26 12:58 | 43.02134 | 17.97308 | 7130 ft | 210 kts | 262° |
| 2026-04-26 12:58 | 43.02068 | 17.95341 | 6779 ft | 206 kts | 271° |
| 2026-04-26 12:59 | 43.02043 | 17.93384 | 6472 ft | 204 kts | 271° |
| 2026-04-26 12:59 | 43.02011 | 17.91509 | 6339 ft | 191 kts | 272° |
| 2026-04-26 12:59 | 43.01982 | 17.89734 | 6167 ft | 184 kts | 272° |
| 2026-04-26 12:59 | 43.02244 | 17.88091 | 5862 ft | 174 kts | 300° |
| 2026-04-26 13:00 | 43.02992 | 17.86856 | 5505 ft | 168 kts | 325° |
| 2026-04-26 13:00 | 43.04043 | 17.86202 | 5235 ft | 168 kts | 348° |
| 2026-04-26 13:00 | 43.05212 | 17.86116 | 4943 ft | 168 kts | 358° |
| 2026-04-26 13:00 | 43.06370 | 17.86086 | 4640 ft | 166 kts | 358° |
| 2026-04-26 13:01 | 43.07530 | 17.86053 | 4345 ft | 167 kts | 357° |
| 2026-04-26 13:01 | 43.08685 | 17.86021 | 4098 ft | 163 kts | 357° |
| 2026-04-26 13:01 | 43.09826 | 17.85987 | 4063 ft | 165 kts | 356° |
| 2026-04-26 13:01 | 43.10986 | 17.85952 | 3802 ft | 168 kts | 357° |
| 2026-04-26 13:02 | 43.12135 | 17.85916 | 3503 ft | 166 kts | 356° |
| 2026-04-26 13:02 | 43.13286 | 17.85882 | 3261 ft | 163 kts | 356° |
| 2026-04-26 13:02 | 43.14388 | 17.85851 | 3024 ft | 155 kts | 355° |
| 2026-04-26 13:02 | 43.15465 | 17.85822 | 2799 ft | 156 kts | 356° |
| 2026-04-26 13:03 | 43.16563 | 17.85790 | 2553 ft | 156 kts | 355° |
| 2026-04-26 13:03 | 43.17597 | 17.85761 | 2333 ft | 142 kts | 357° |
| 2026-04-26 13:03 | 43.18559 | 17.85730 | 2121 ft | 135 kts | 357° |
| 2026-04-26 13:03 | 43.19488 | 17.85696 | 1883 ft | 133 kts | 358° |
| 2026-04-26 13:04 | 43.20402 | 17.85661 | 1651 ft | 130 kts | 358° |
| 2026-04-26 13:04 | 43.21284 | 17.85615 | 1458 ft | 124 kts | 358° |
| 2026-04-26 13:04 | 43.22142 | 17.85558 | 1231 ft | 123 kts | 359° |
| 2026-04-26 13:04 | 43.22991 | 17.85583 | 1059 ft | 121 kts | 4° |
| 2026-04-26 13:05 | 43.23837 | 17.85694 | 870 ft | 122 kts | 7° |
| 2026-04-26 13:05 | 43.24680 | 17.85832 | 746 ft | 121 kts | 6° |
| 2026-04-26 13:05 | 43.25523 | 17.85947 | 563 ft | 122 kts | 2° |
| 2026-04-26 13:05 | 43.26340 | 17.85676 | 405 ft | 124 kts | 339° |
| 2026-04-26 13:06 | 43.27139 | 17.85228 | 238 ft | 124 kts | 340° |
| 2026-04-26 13:06 | 43.27894 | 17.84809 | 170 ft | 104 kts | 338° |
| 2026-04-26 13:06 | 43.28405 | 17.84523 | 175 ft | 55 kts | 337° |
| 2026-04-26 13:06 | 43.28664 | 17.84377 | 175 ft | 38 kts | 338° |
| 2026-04-26 13:07 | 43.28915 | 17.84237 | 178 ft | 40 kts | 338° |
| 2026-04-26 13:07 | 43.29151 | 17.84104 | 182 ft | 25 kts | 338° |
| 2026-04-26 13:07 | 43.29249 | 17.84050 | 183 ft | 10 kts | 338° |
| 2026-04-26 13:07 | 43.29273 | 17.83978 | 182 ft | 10 kts | 261° |
| 2026-04-26 13:08 | 43.29248 | 17.83889 | 181 ft | 10 kts | 247° |
| 2026-04-26 13:08 | 43.29220 | 17.83792 | 181 ft | 10 kts | 248° |
| 2026-04-26 13:08 | 43.29168 | 17.83767 | 179 ft | 8 kts | 154° |
| 2026-04-26 13:08 | 43.29113 | 17.83801 | 179 ft | 10 kts | 156° |
| 2026-04-26 13:09 | 43.29065 | 17.83780 | 179 ft | 8 kts | 248° |
| 2026-04-26 13:09 | 43.29029 | 17.83765 | 179 ft | 5 kts | 160° |
| 2026-04-26 13:09 | 43.28993 | 17.83786 | 179 ft | 5 kts | 161° |
| 2026-04-26 13:09 | 43.28967 | 17.83760 | 179 ft | 5 kts | 246° |
| 2026-04-26 13:10 | 43.28975 | 17.83737 | 179 ft | 1 kts | 350° |
| 2026-04-26 13:10 | 43.28983 | 17.83746 | 179 ft | 0 kts | 33° |